Relevés horaires Matro (Suisse)


Relevés horaires à Matro - Mardi 05 Juill. 2022
Heure UTC1 Température [°C] Vent [km/h] Hum. [%] Pres.4 [hPa] Visi. [Km] Nébu. [octa] Préc.5 [mm] Cond.
2m. Res. Ros. Dir.2 Vit. Moy. Raf.3
23:00 10.3 6.5 2.7 NNO 37.0 -- 51.9 59 850(0.4/3h) -- -- -- --
22:00 10.7 7.2 2.3 NNO 35.2 -- 48.2 56 850(1.2/3h) -- -- -- --
21:00 10.8 7.3 3.1 NNO 35.2 -- 57.4 59 850(0.9/3h) -- -- -- --
20:00 11.3 8.3 2.9 NNO 29.6 -- 57.4 56 850(0.7/3h) -- -- -- --
19:00 12.0 8.4 2.2 NNO 46.3 -- 57.4 51 850(-0.2/3h) -- -- -- --
18:00 12.8 10 2.5 NNO 33.3 -- 44.4 49 850(-0.3/3h) -- -- -- --
17:00 13.4 11.5 2.7 NO 22.2 -- 38.9 48 850(-0.3/3h) -- -- -- --
16:00 13.7 11.6 2.7 NNO 25.9 -- 38.9 47 850(-0.2/3h) -- -- -- --
15:00 13.8 12 2.5 NNO 22.2 -- 44.4 46 850(-0.1/3h) -- -- -- --
14:00 13.3 10.9 2.4 NNO 29.6 -- 44.4 48 850(-0.2/3h) -- -- -- --
13:00 12.9 10.7 3.3 NNO 24.1 -- 38.9 52 850(0.1/3h) -- -- -- --
12:00 12.8 10.6 2.8 NNO 24.1 -- 46.3 51 850(0.3/3h) -- -- -- --
11:00 12.6 10.6 4.4 NNO 20.4 -- 38.9 57 850(0.7/3h) -- -- -- --
10:00 11.8 9.3 6.0 NNO 24.1 -- 46.3 68 850(0.8/3h) -- -- -- --
09:00 11.9 9.7 5.8 NNO 20.4 -- 44.4 66 850(0.8/3h) -- -- -- --
08:00 11.3 9 6.0 NNO 20.4 -- 40.7 70 850(0.8/3h) -- -- -- --
07:00 11.0 7.9 5.1 NNO 29.6 -- 44.4 67 850(0.7/3h) -- -- -- --
06:00 11.0 7.9 4.1 NO 29.6 -- 37.0 62 850(0.4/3h) -- -- -- --
05:00 10.6 7.5 4.3 NNO 27.8 -- 37.0 65 850(0.0/3h) -- -- -- --
04:00 10.6 7.4 5.1 NNO 29.6 -- 35.2 69 850(-0.5/3h) -- -- -- --
03:00 11.0 8.3 4.8 NNO 24.1 -- 27.8 66 850(-0.8/3h) -- -- -- --
02:00 11.4 9.3 4.3 NNO 18.5 -- 27.8 62 850(-0.8/3h) -- -- -- --
01:00 11.6 9.5 4.4 NNO 18.5 -- 27.8 61 850(-0.8/3h) -- -- -- --
00:00 11.9 9.4 4.2 NNO 24.1 -- 29.6 59 850(-0.1/3h) -- -- -- --

1 Coordinated Universal Time. Actuellement il est 23:00 locale et 21:00 UTC.

2 Le vent souffle depuis la direction indiquée vers la direction oposée.

3 Les rafales max. sont disponible 40 min après l'heure du relevé.

4 Pour les stations d'altitude (plus de 600m) le géopotentiel du niveau le plus proche de la pression obligatoire est indiqué.

5 Les stations disposant d'un diffuseur peuvent indiquer "trace". Cela signifie que des précipitations ont touchés le sol mais que la quantité est inférieure à 0.1 mm.

Copyright

Les données affichées sur cette page sont la propriété exclusive de Météo Suisse.

Récapitulatif de la journée
Température [°C] Vent [km/h] Ensoleillement4 [h] Precipitations totale5 [mm] Pression [Hpa]
Min1 Max.2 Moy.3 Max. Min Max.
9.7 13.9 0 57.4 11 h 12 min 0 850.0 850.0

1 Température minimale relevée entre 18:00 UTC la veille et 18:00 UTC le jour donné.

2 Température maximale relevée entre 06:00 UTC le jour donné et 06:00 UTC le lendemain.

3 Vent moyen de la journée basé sur les relevés horaires.

4 Ensoleillement en heures relevé entre 06:00 UTC la veille et 06:00 UTC le jour donné.

5 Précipitations totales tombées entre 06:00 UTC la jour donné et 06:00 UTC le lendemain.

Graphiques horaires